createdAt,value
2023-04-17T00:02:03.105Z,100458.52
2023-04-17T00:04:26.756Z,100455.75
2023-04-17T00:07:02.932Z,100457.11
2023-04-17T00:09:34.194Z,100459.67
2023-04-17T00:12:16.602Z,100458.95
2023-04-17T00:14:48.015Z,100455.61
2023-04-17T00:17:11.624Z,100454.06
2023-04-17T00:19:47.062Z,100457.30
2023-04-17T00:22:23.804Z,100455.39
2023-04-17T00:24:47.524Z,100453.98
2023-04-17T00:27:11.111Z,100453.09
2023-04-17T00:29:44.995Z,100454.10
2023-04-17T00:32:28.659Z,100450.48
2023-04-17T00:35:02.372Z,100457.25
2023-04-17T00:37:31.229Z,100457.27
2023-04-17T00:39:59.435Z,100456.55
2023-04-17T00:42:44.550Z,100459.48
2023-04-17T00:45:17.129Z,100460.50
2023-04-17T00:47:43.822Z,100463.79
2023-04-17T00:50:11.053Z,100467.06
2023-04-17T00:52:46.212Z,100469.52
2023-04-17T00:55:32.120Z,100465.56
2023-04-17T00:58:16.117Z,100467.31
2023-04-17T01:00:42.075Z,100467.52
2023-04-17T01:03:29.126Z,100473.08
2023-04-17T01:06:13.088Z,100478.29
2023-04-17T01:08:42.398Z,100478.11
2023-04-17T01:11:06.328Z,100479.52
2023-04-17T01:13:29.827Z,100479.34
2023-04-17T01:16:14.838Z,100479.34
2023-04-17T01:18:58.640Z,100478.02
2023-04-17T01:21:25.224Z,100480.29
2023-04-17T01:23:52.313Z,100478.73
2023-04-17T01:26:30.838Z,100472.15
2023-04-17T01:28:59.341Z,100476.51
2023-04-17T01:31:37.222Z,100475.46
2023-04-17T01:34:14.509Z,100478.26
2023-04-17T01:36:58.559Z,100479.46
2023-04-17T01:39:37.272Z,100481.56
2023-04-17T01:42:05.698Z,100477.42
2023-04-17T01:44:49.713Z,100477.27
2023-04-17T01:47:13.891Z,100479.86
2023-04-17T01:49:41.241Z,100485.39
2023-04-17T01:52:08.117Z,100483.49
2023-04-17T01:54:32.284Z,100482.64
2023-04-17T01:56:56.423Z,100489.56
2023-04-17T01:59:19.808Z,100487.48
2023-04-17T02:01:43.320Z,100485.05
2023-04-17T02:04:07.183Z,100484.20
2023-04-17T02:06:51.329Z,100486.80
2023-04-17T02:09:18.238Z,100484.89
2023-04-17T02:11:48.966Z,100486.28
2023-04-17T02:14:23.397Z,100489.75
2023-04-17T02:16:49.547Z,100487.15
2023-04-17T02:19:16.093Z,100488.75
2023-04-17T02:21:59.836Z,100488.63
2023-04-17T02:24:23.340Z,100487.94
2023-04-17T02:26:49.565Z,100490.90
2023-04-17T02:29:33.738Z,100488.15
2023-04-17T02:32:05.235Z,100491.13
2023-04-17T02:34:38.600Z,100489.59
2023-04-17T02:37:07.525Z,100491.33
2023-04-17T02:39:40.949Z,100495.80
2023-04-17T02:42:07.206Z,100494.23
2023-04-17T02:44:35.489Z,100492.34
2023-04-17T02:47:02.087Z,100495.45
2023-04-17T02:49:33.092Z,100502.71
2023-04-17T02:52:04.956Z,100497.88
2023-04-17T02:54:39.607Z,100500.15
2023-04-17T02:57:03.725Z,100501.38
2023-04-17T02:59:27.352Z,100499.84
2023-04-17T03:01:51.035Z,100498.29
2023-04-17T03:04:17.133Z,100500.39
2023-04-17T03:06:41.417Z,100498.34
2023-04-17T03:09:06.384Z,100504.05
2023-04-17T03:11:37.232Z,100503.73
2023-04-17T03:14:01.024Z,100506.37
2023-04-17T03:16:44.837Z,100509.70
2023-04-17T03:19:28.660Z,100511.98
2023-04-17T03:21:54.584Z,100515.28
2023-04-17T03:24:33.275Z,100521.70
2023-04-17T03:27:09.321Z,100520.98
2023-04-17T03:29:37.688Z,100524.25
2023-04-17T03:32:21.340Z,100527.36
2023-04-17T03:35:06.689Z,100528.34
2023-04-17T03:37:31.403Z,100528.84
2023-04-17T03:39:58.797Z,100529.52
2023-04-17T03:42:28.189Z,100526.58
2023-04-17T03:44:54.789Z,100524.16
2023-04-17T03:47:25.827Z,100528.31
2023-04-17T03:49:52.938Z,100530.02
2023-04-17T03:52:19.687Z,100532.09
2023-04-17T03:54:59.255Z,100534.14
2023-04-17T03:57:43.267Z,100533.11
2023-04-17T04:00:18.530Z,100540.33
2023-04-17T04:02:42.007Z,100542.55
2023-04-17T04:05:09.663Z,100544.45
2023-04-17T04:07:41.080Z,100546.86
2023-04-17T04:10:10.894Z,100545.31
2023-04-17T04:12:55.392Z,100552.06
2023-04-17T04:15:21.904Z,100557.23
2023-04-17T04:17:49.377Z,100560.69
2023-04-17T04:20:16.448Z,100561.38
2023-04-17T04:22:44.253Z,100566.92
2023-04-17T04:25:28.459Z,100570.36
2023-04-17T04:28:06.114Z,100571.73
2023-04-17T04:30:50.653Z,100573.21
2023-04-17T04:33:31.116Z,100579.44
2023-04-17T04:35:56.316Z,100578.55
2023-04-17T04:38:30.381Z,100580.77
2023-04-17T04:41:05.635Z,100581.79
2023-04-17T04:43:33.457Z,100580.19
2023-04-17T04:46:00.417Z,100580.85
2023-04-17T04:48:28.561Z,100582.23
2023-04-17T04:50:52.087Z,100588.99
2023-04-17T04:53:18.605Z,100590.70
2023-04-17T04:55:48.407Z,100592.42
2023-04-17T04:58:25.363Z,100591.88
2023-04-17T05:00:49.573Z,100593.22
2023-04-17T05:03:40.072Z,100589.74
2023-04-17T05:06:10.614Z,100588.00
2023-04-17T05:08:37.325Z,100588.35
2023-04-17T05:11:07.313Z,100589.05
2023-04-17T05:13:33.900Z,100586.73
2023-04-17T05:16:01.649Z,100587.92
2023-04-17T05:18:25.877Z,100589.45
2023-04-17T05:20:49.355Z,100589.98
2023-04-17T05:23:13.291Z,100591.83
2023-04-17T05:25:37.735Z,100592.31
2023-04-17T05:28:04.879Z,100595.20
2023-04-17T05:30:28.861Z,100597.03
2023-04-17T05:33:04.619Z,100599.04
2023-04-17T05:35:39.089Z,100594.68
2023-04-17T05:38:10.279Z,100598.09
2023-04-17T05:40:36.821Z,100596.13
2023-04-17T05:43:07.854Z,100596.08
2023-04-17T05:45:41.358Z,100598.05
2023-04-17T05:48:06.399Z,100598.15
2023-04-17T05:50:30.349Z,100603.42
2023-04-17T05:52:54.447Z,100603.30
2023-04-17T05:55:19.739Z,100601.35
2023-04-17T05:57:50.153Z,100597.52
2023-04-17T06:00:24.162Z,100593.73
2023-04-17T06:02:50.513Z,100588.94
2023-04-17T06:05:21.347Z,100588.27
2023-04-17T06:07:45.638Z,100591.77
2023-04-17T06:10:11.629Z,100606.52
2023-04-17T06:12:55.576Z,100603.40
2023-04-17T06:15:23.346Z,100603.92
2023-04-17T06:18:01.296Z,100607.08
2023-04-17T06:20:28.417Z,100606.61
2023-04-17T06:23:12.679Z,100608.27
2023-04-17T06:25:39.288Z,100607.66
2023-04-17T06:28:23.634Z,100609.63
2023-04-17T06:30:49.065Z,100612.48
2023-04-17T06:33:12.605Z,100614.14
2023-04-17T06:35:37.180Z,100614.25
2023-04-17T06:38:09.488Z,100612.36
2023-04-17T06:40:33.756Z,100606.06
2023-04-17T06:43:02.621Z,100606.08
2023-04-17T06:45:26.208Z,100611.52
2023-04-17T06:47:49.912Z,100607.44
2023-04-17T06:50:14.080Z,100611.86
2023-04-17T06:52:37.632Z,100615.73
2023-04-17T06:55:01.740Z,100615.20
2023-04-17T06:57:26.959Z,100615.44
2023-04-17T06:59:53.752Z,100617.48
2023-04-17T07:02:17.461Z,100616.13
2023-04-17T07:04:44.254Z,100614.19
2023-04-17T07:07:07.928Z,100616.73
2023-04-17T07:09:31.292Z,100616.27
2023-04-17T07:11:55.292Z,100618.74
2023-04-17T07:14:18.786Z,100619.40
2023-04-17T07:16:42.515Z,100620.41
2023-04-17T07:19:06.224Z,100627.12
2023-04-17T07:21:29.988Z,100625.54
2023-04-17T07:23:53.446Z,100630.00
2023-04-17T07:26:17.184Z,100634.44
2023-04-17T07:28:40.842Z,100639.88
2023-04-17T07:31:11.835Z,100644.05
2023-04-17T07:33:37.418Z,100643.97
2023-04-17T07:36:03.242Z,100644.28
2023-04-17T07:38:26.659Z,100639.78
2023-04-17T07:40:50.670Z,100645.71
2023-04-17T07:43:14.710Z,100645.53
2023-04-17T07:45:40.476Z,100647.38
2023-04-17T07:48:05.785Z,100645.64
2023-04-17T07:50:29.731Z,100647.85
2023-04-17T07:52:53.258Z,100654.39
2023-04-17T07:55:17.075Z,100651.00
2023-04-17T07:57:42.093Z,100651.30
2023-04-17T08:00:09.871Z,100649.38
2023-04-17T08:02:43.082Z,100650.02
2023-04-17T08:05:10.593Z,100653.34
2023-04-17T08:07:34.130Z,100652.70
2023-04-17T08:09:58.126Z,100654.17
2023-04-17T08:12:21.468Z,100654.89
2023-04-17T08:14:44.957Z,100662.55
2023-04-17T08:17:08.411Z,100662.04
2023-04-17T08:19:31.893Z,100663.68
2023-04-17T08:22:03.292Z,100663.10
2023-04-17T08:24:26.872Z,100664.34
2023-04-17T08:26:50.811Z,100668.95
2023-04-17T08:29:14.633Z,100669.15
2023-04-17T08:31:39.727Z,100674.04
2023-04-17T08:34:13.735Z,100670.95
2023-04-17T08:36:39.436Z,100670.97
2023-04-17T08:39:04.165Z,100670.29
2023-04-17T08:41:36.756Z,100667.27
2023-04-17T08:44:03.105Z,100665.84
2023-04-17T08:46:27.127Z,100669.44
2023-04-17T08:48:52.223Z,100669.27
2023-04-17T08:51:16.845Z,100673.71
2023-04-17T08:53:40.524Z,100670.61
2023-04-17T08:56:08.918Z,100676.45
2023-04-17T08:58:34.204Z,100675.88
2023-04-17T09:01:09.126Z,100687.86
2023-04-17T09:03:41.082Z,100684.75
2023-04-17T09:06:05.091Z,100691.77
2023-04-17T09:08:28.934Z,100689.39
2023-04-17T09:10:59.790Z,100686.97
2023-04-17T09:13:24.796Z,100686.77
2023-04-17T09:16:07.416Z,100686.63
2023-04-17T09:18:32.318Z,100685.86
2023-04-17T09:20:56.926Z,100688.98
2023-04-17T09:23:22.186Z,100690.91
2023-04-17T09:25:46.089Z,100692.33
2023-04-17T09:28:15.575Z,100690.45
2023-04-17T09:30:40.420Z,100697.11
2023-04-17T09:33:05.065Z,100698.12
2023-04-17T09:35:28.842Z,100698.80
2023-04-17T09:37:53.601Z,100701.05
2023-04-17T09:40:18.500Z,100699.91
2023-04-17T09:42:56.453Z,100704.30
2023-04-17T09:45:21.774Z,100710.26
2023-04-17T09:47:47.892Z,100714.92
2023-04-17T09:50:11.126Z,100712.04
2023-04-17T09:52:36.259Z,100715.46
2023-04-17T09:55:06.239Z,100712.58
2023-04-17T09:57:29.786Z,100710.24
2023-04-17T09:59:58.995Z,100706.17
2023-04-17T10:02:26.121Z,100699.15
2023-04-17T10:04:49.843Z,100700.67
2023-04-17T10:07:15.627Z,100697.55
2023-04-17T10:09:41.207Z,100693.42
2023-04-17T10:12:06.049Z,100695.50
2023-04-17T10:14:32.880Z,100703.30
2023-04-17T10:16:56.819Z,100702.90
2023-04-17T10:19:31.167Z,100697.52
2023-04-17T10:22:32.357Z,100696.58
2023-04-17T10:25:17.907Z,100700.19
2023-04-17T10:27:47.010Z,100702.59
2023-04-17T10:30:12.547Z,100697.65
2023-04-17T10:32:36.536Z,100698.00
2023-04-17T10:35:02.944Z,100694.30
2023-04-17T10:37:58.675Z,100696.55
2023-04-17T10:40:23.989Z,100697.70
2023-04-17T10:43:03.195Z,100694.05
2023-04-17T10:45:46.784Z,100690.14
2023-04-17T10:48:20.942Z,100689.87
2023-04-17T10:50:44.732Z,100687.20
2023-04-17T10:53:28.348Z,100686.02
2023-04-17T10:55:51.785Z,100688.02
2023-04-17T10:58:15.386Z,100687.52
2023-04-17T11:00:49.901Z,100689.73
2023-04-17T11:03:16.456Z,100685.32
2023-04-17T11:05:45.223Z,100684.50
2023-04-17T11:08:11.043Z,100680.52
2023-04-17T11:10:36.884Z,100678.44
2023-04-17T11:13:01.594Z,100681.40
2023-04-17T11:15:29.768Z,100682.33
2023-04-17T11:17:54.573Z,100679.59
2023-04-17T11:20:21.858Z,100675.82
2023-04-17T11:22:45.752Z,100677.66
2023-04-17T11:25:20.783Z,100676.42
2023-04-17T11:27:44.442Z,100680.59
2023-04-17T11:30:10.213Z,100680.10
2023-04-17T11:32:37.022Z,100673.36
2023-04-17T11:35:01.028Z,100673.95
2023-04-17T11:37:25.590Z,100675.36
2023-04-17T11:39:49.257Z,100671.84
2023-04-17T11:42:12.630Z,100674.80
2023-04-17T11:44:36.536Z,100675.02
2023-04-17T11:47:01.537Z,100674.11
2023-04-17T11:49:25.871Z,100675.64
2023-04-17T11:51:49.708Z,100674.27
2023-04-17T11:54:24.522Z,100670.89
2023-04-17T11:57:00.761Z,100674.94
2023-04-17T11:59:31.514Z,100673.34
2023-04-17T12:01:54.894Z,100674.50
2023-04-17T12:04:21.118Z,100673.86
2023-04-17T12:06:45.346Z,100675.98
2023-04-17T12:09:20.176Z,100674.66
2023-04-17T12:11:43.684Z,100678.23
2023-04-17T12:14:11.681Z,100678.31
2023-04-17T12:16:35.551Z,100682.09
2023-04-17T12:19:01.557Z,100685.16
2023-04-17T12:21:27.636Z,100684.99
2023-04-17T12:23:51.237Z,100686.41
2023-04-17T12:26:15.211Z,100691.00
2023-04-17T12:28:58.920Z,100692.89
2023-04-17T12:31:22.589Z,100691.80
2023-04-17T12:33:46.759Z,100694.91
2023-04-17T12:36:10.581Z,100699.37
2023-04-17T12:38:34.392Z,100700.02
2023-04-17T12:40:57.829Z,100695.49
2023-04-17T12:43:21.748Z,100691.73
2023-04-17T12:45:45.793Z,100694.76
2023-04-17T12:48:09.492Z,100696.14
2023-04-17T12:50:33.132Z,100697.45
2023-04-17T12:52:56.597Z,100699.85
2023-04-17T12:55:20.830Z,100698.57
2023-04-17T12:57:47.534Z,100703.27
2023-04-17T13:00:12.775Z,100704.76
2023-04-17T13:02:36.703Z,100708.63
2023-04-17T13:05:00.860Z,100709.77
2023-04-17T13:07:24.671Z,100705.71
2023-04-17T13:09:48.410Z,100704.23
2023-04-17T13:12:12.537Z,100705.34
2023-04-17T13:14:43.457Z,100702.40
2023-04-17T13:17:07.215Z,100700.82
2023-04-17T13:19:32.416Z,100703.27
2023-04-17T13:21:56.136Z,100701.95
2023-04-17T13:24:19.872Z,100700.56
2023-04-17T13:27:04.622Z,100696.09
2023-04-17T13:29:31.324Z,100695.53
2023-04-17T13:31:54.845Z,100698.59
2023-04-17T13:34:19.622Z,100693.92
2023-04-17T13:36:44.296Z,100696.05
2023-04-17T13:39:08.877Z,100692.23
2023-04-17T13:41:32.758Z,100694.08
2023-04-17T13:43:56.665Z,100690.34
2023-04-17T13:46:20.557Z,100692.13
2023-04-17T13:48:46.207Z,100693.08
2023-04-17T13:51:09.827Z,100698.89
2023-04-17T13:53:33.596Z,100699.05
2023-04-17T13:55:57.506Z,100707.04
2023-04-17T13:58:20.948Z,100709.64
2023-04-17T14:00:44.637Z,100710.17
2023-04-17T14:03:08.193Z,100706.16
2023-04-17T14:05:32.303Z,100704.09
2023-04-17T14:08:03.936Z,100708.35
2023-04-17T14:10:27.607Z,100707.10
2023-04-17T14:12:54.434Z,100710.48
2023-04-17T14:15:18.151Z,100707.99
2023-04-17T14:17:42.540Z,100708.27
2023-04-17T14:20:11.472Z,100703.09
2023-04-17T14:22:44.343Z,100700.17
2023-04-17T14:25:09.207Z,100699.17
2023-04-17T14:27:35.073Z,100700.14
2023-04-17T14:30:05.689Z,100693.17
2023-04-17T14:32:31.904Z,100693.42
2023-04-17T14:34:55.623Z,100699.58
2023-04-17T14:37:19.571Z,100699.76
2023-04-17T14:39:46.313Z,100699.31
2023-04-17T14:42:10.195Z,100706.59
2023-04-17T14:44:33.658Z,100702.55
2023-04-17T14:46:57.333Z,100700.31
2023-04-17T14:49:20.914Z,100703.60
2023-04-17T14:51:44.423Z,100703.94
2023-04-17T14:54:08.623Z,100701.91
2023-04-17T14:56:32.249Z,100701.17
2023-04-17T14:58:55.741Z,100707.64
2023-04-17T15:01:19.200Z,100707.40
2023-04-17T15:03:45.522Z,100707.22
2023-04-17T15:06:11.743Z,100705.25
2023-04-17T15:08:35.160Z,100709.37
2023-04-17T15:10:58.842Z,100708.06
2023-04-17T15:13:22.379Z,100709.16
2023-04-17T15:15:45.809Z,100710.42
2023-04-17T15:18:09.687Z,100709.73
2023-04-17T15:20:35.170Z,100710.63
2023-04-17T15:22:59.751Z,100709.48
2023-04-17T15:25:24.204Z,100709.43
2023-04-17T15:27:49.948Z,100714.33
2023-04-17T15:30:15.261Z,100711.27
2023-04-17T15:32:38.693Z,100710.31
2023-04-17T15:35:02.296Z,100712.72
2023-04-17T15:37:25.643Z,100710.80
2023-04-17T15:39:49.046Z,100711.61
2023-04-17T15:42:12.455Z,100710.97
2023-04-17T15:44:36.918Z,100709.57
2023-04-17T15:47:00.470Z,100710.30
2023-04-17T15:49:24.600Z,100710.49
2023-04-17T15:51:48.125Z,100713.48
2023-04-17T15:54:11.555Z,100708.84
2023-04-17T15:56:35.156Z,100713.82
2023-04-17T15:58:58.482Z,100717.20
2023-04-17T16:01:21.904Z,100712.15
2023-04-17T16:03:45.700Z,100719.89
2023-04-17T16:06:10.540Z,100716.34
2023-04-17T16:08:34.170Z,100713.09
2023-04-17T16:10:59.133Z,100716.40
2023-04-17T16:13:22.537Z,100716.77
2023-04-17T16:15:46.053Z,100716.62
2023-04-17T16:18:11.162Z,100719.11
2023-04-17T16:20:35.318Z,100723.75
2023-04-17T16:22:58.816Z,100722.10
2023-04-17T16:25:22.359Z,100724.11
2023-04-17T16:27:45.871Z,100726.52
2023-04-17T16:30:10.761Z,100733.76
2023-04-17T16:32:34.193Z,100732.23
2023-04-17T16:34:57.683Z,100733.30
2023-04-17T16:37:21.039Z,100737.77
2023-04-17T16:39:44.558Z,100739.16
2023-04-17T16:42:08.375Z,100740.66
2023-04-17T16:44:31.786Z,100745.46
2023-04-17T16:49:22.460Z,100743.94
2023-04-17T16:51:45.893Z,100752.52
2023-04-17T16:54:09.352Z,100751.95
2023-04-17T16:56:35.899Z,100754.77
2023-04-17T16:58:59.409Z,100756.77
2023-04-17T17:01:23.180Z,100756.95
2023-04-17T17:03:46.692Z,100762.05
2023-04-17T17:06:10.150Z,100763.86
2023-04-17T17:08:33.744Z,100767.48
2023-04-17T17:10:59.661Z,100767.58
2023-04-17T17:13:23.050Z,100773.27
2023-04-17T17:15:47.080Z,100776.19
2023-04-17T17:18:10.548Z,100777.47
2023-04-17T17:20:34.022Z,100782.10
2023-04-17T17:22:57.432Z,100782.74
2023-04-17T17:25:20.829Z,100784.61
2023-04-17T17:27:44.259Z,100781.77
2023-04-17T17:30:09.836Z,100783.48
2023-04-17T17:32:33.407Z,100782.91
2023-04-17T17:34:57.634Z,100787.52
2023-04-17T17:37:21.337Z,100791.59
2023-04-17T17:39:44.860Z,100797.34
2023-04-17T17:42:08.951Z,100800.29
2023-04-17T17:44:32.437Z,100798.36
2023-04-17T17:46:55.827Z,100802.44
2023-04-17T17:49:19.165Z,100799.59
2023-04-17T17:51:43.769Z,100802.96
2023-04-17T17:54:07.621Z,100804.80
2023-04-17T17:56:31.128Z,100810.49
2023-04-17T17:58:54.769Z,100809.54
2023-04-17T18:01:18.193Z,100816.39
2023-04-17T18:03:41.756Z,100815.06
2023-04-17T18:06:05.567Z,100815.08
2023-04-17T18:08:29.493Z,100815.27
2023-04-17T18:10:53.007Z,100818.73
2023-04-17T18:13:16.700Z,100819.33
2023-04-17T18:15:40.122Z,100818.57
2023-04-17T18:18:03.776Z,100823.33
2023-04-17T18:20:27.221Z,100821.81
2023-04-17T18:22:51.349Z,100825.65
2023-04-17T18:25:14.751Z,100828.31
2023-04-17T18:27:38.184Z,100826.09
2023-04-17T18:30:01.832Z,100829.81
2023-04-17T18:32:25.566Z,100833.16
2023-04-17T18:34:50.217Z,100836.50
2023-04-17T18:37:14.664Z,100836.73
2023-04-17T18:39:59.340Z,100839.19
2023-04-17T18:42:22.726Z,100838.18
2023-04-17T18:44:46.281Z,100839.27
2023-04-17T18:47:09.700Z,100843.65
2023-04-17T18:49:35.498Z,100842.63
2023-04-17T18:51:59.069Z,100841.23
2023-04-17T18:54:23.613Z,100843.52
2023-04-17T18:56:47.047Z,100847.04
2023-04-17T18:59:11.218Z,100851.77
2023-04-17T19:01:37.423Z,100851.67
2023-04-17T19:04:01.988Z,100853.79
2023-04-17T19:06:26.166Z,100852.27
2023-04-17T19:08:49.702Z,100849.34
2023-04-17T19:11:13.107Z,100851.64
2023-04-17T19:13:44.386Z,100849.41
2023-04-17T19:16:07.806Z,100850.87
2023-04-17T19:18:31.270Z,100855.77
2023-04-17T19:20:54.986Z,100851.99
2023-04-17T19:23:21.050Z,100857.23
2023-04-17T19:25:44.449Z,100854.79
2023-04-17T19:28:07.886Z,100853.08
2023-04-17T19:30:31.479Z,100853.98
2023-04-17T19:32:55.052Z,100853.66
2023-04-17T19:35:19.003Z,100849.52
2023-04-17T19:37:45.824Z,100851.63
2023-04-17T19:40:21.231Z,100853.23
2023-04-17T19:42:47.499Z,100856.59
2023-04-17T19:45:12.324Z,100857.70
2023-04-17T19:47:36.533Z,100857.55
2023-04-17T19:50:00.019Z,100859.67
2023-04-17T19:52:24.022Z,100856.77
2023-04-17T19:54:50.333Z,100858.01
2023-04-17T19:57:22.976Z,100855.56
2023-04-17T19:59:46.374Z,100853.84
2023-04-17T20:02:11.273Z,100855.77
2023-04-17T20:04:34.884Z,100856.13
2023-04-17T20:06:58.278Z,100858.07
2023-04-17T20:09:21.857Z,100857.41
2023-04-17T20:11:45.649Z,100854.63
2023-04-17T20:14:09.116Z,100855.70
2023-04-17T20:16:32.533Z,100855.37
2023-04-17T20:18:56.365Z,100855.41
2023-04-17T20:21:20.011Z,100859.65
2023-04-17T20:23:43.574Z,100857.82
2023-04-17T20:26:10.562Z,100856.70
2023-04-17T20:28:33.933Z,100861.83
2023-04-17T20:30:57.647Z,100866.95
2023-04-17T20:33:21.244Z,100866.13
2023-04-17T20:35:45.015Z,100866.02
2023-04-17T20:38:08.666Z,100871.61
2023-04-17T20:40:35.433Z,100864.35
2023-04-17T20:42:58.877Z,100867.91
2023-04-17T20:45:22.676Z,100865.73
2023-04-17T20:47:56.581Z,100867.52
2023-04-17T20:50:21.041Z,100866.38
2023-04-17T20:52:44.448Z,100869.54
2023-04-17T20:55:09.022Z,100870.11
2023-04-17T20:57:32.533Z,100872.95
2023-04-17T20:59:56.154Z,100877.16
2023-04-17T21:02:21.115Z,100881.02
2023-04-17T21:04:44.922Z,100884.18
2023-04-17T21:07:11.266Z,100885.08
2023-04-17T21:09:35.296Z,100880.38
2023-04-17T21:12:19.190Z,100881.08
2023-04-17T21:14:51.399Z,100883.67
2023-04-17T21:17:14.883Z,100884.02
2023-04-17T21:19:41.701Z,100887.14
2023-04-17T21:22:05.154Z,100893.94
2023-04-17T21:24:31.093Z,100895.69
2023-04-17T21:27:04.502Z,100897.44
2023-04-17T21:29:29.203Z,100900.23
2023-04-17T21:31:52.604Z,100900.05
2023-04-17T21:34:16.208Z,100897.95
2023-04-17T21:36:39.861Z,100899.52
2023-04-17T21:39:06.694Z,100897.80
2023-04-17T21:41:31.193Z,100900.93
2023-04-17T21:43:54.608Z,100902.86
2023-04-17T21:46:25.692Z,100895.41
2023-04-17T21:48:49.267Z,100897.67
2023-04-17T21:51:13.475Z,100900.95
2023-04-17T21:53:49.762Z,100897.65
2023-04-17T21:56:13.338Z,100900.13
2023-04-17T21:58:37.085Z,100897.96
2023-04-17T22:01:00.691Z,100898.55
2023-04-17T22:03:24.327Z,100896.67
2023-04-17T22:05:49.774Z,100900.50
2023-04-17T22:08:16.890Z,100898.27
2023-04-17T22:10:43.858Z,100901.22
2023-04-17T22:13:07.465Z,100898.30
2023-04-17T22:15:38.615Z,100896.83
2023-04-17T22:18:02.341Z,100900.88
2023-04-17T22:21:20.188Z,100897.13
2023-04-17T22:24:56.520Z,100897.60
2023-04-17T22:28:32.722Z,100896.69
2023-04-17T22:32:09.530Z,100898.88
2023-04-17T22:35:46.433Z,100898.99
2023-04-17T22:39:23.090Z,100905.72
2023-04-17T22:42:59.154Z,100907.18
2023-04-17T22:46:35.527Z,100911.91
2023-04-17T22:50:12.178Z,100909.70
2023-04-17T22:53:48.618Z,100907.27
2023-04-17T22:57:24.953Z,100903.45
2023-04-17T23:01:01.360Z,100907.27
2023-04-17T23:04:37.858Z,100900.02
2023-04-17T23:08:14.438Z,100898.52
2023-04-17T23:11:00.568Z,100898.91
2023-04-17T23:13:25.025Z,100900.11
2023-04-17T23:15:48.458Z,100899.58
2023-04-17T23:18:11.903Z,100895.06
2023-04-17T23:20:35.496Z,100896.64
2023-04-17T23:22:58.912Z,100897.16
2023-04-17T23:25:22.582Z,100895.44
2023-04-17T23:27:46.100Z,100899.77
2023-04-17T23:30:11.111Z,100897.87
2023-04-17T23:32:34.714Z,100892.31
2023-04-17T23:35:00.562Z,100896.81
2023-04-17T23:37:24.228Z,100891.79
2023-04-17T23:39:48.141Z,100893.02
2023-04-17T23:42:11.561Z,100891.66
2023-04-17T23:44:35.155Z,100888.40
2023-04-17T23:46:59.294Z,100893.10
2023-04-17T23:49:22.720Z,100895.17
2023-04-17T23:51:46.173Z,100894.68
2023-04-17T23:54:09.835Z,100889.33
2023-04-17T23:56:33.240Z,100895.56
2023-04-17T23:58:56.739Z,100892.81
